createdAt,value
2018-02-22T00:01:11.408Z,-0.10
2018-02-22T00:02:37.408Z,-0.15
2018-02-22T00:04:05.346Z,-0.21
2018-02-22T00:05:32.503Z,-0.27
2018-02-22T00:06:59.612Z,-0.36
2018-02-22T00:08:25.656Z,-0.41
2018-02-22T00:09:53.825Z,-0.42
2018-02-22T00:11:20.149Z,-0.43
2018-02-22T00:12:47.601Z,-0.39
2018-02-22T00:14:14.800Z,-0.37
2018-02-22T00:15:40.846Z,-0.34
2018-02-22T00:17:08.795Z,-0.31
2018-02-22T00:18:35.902Z,-0.27
2018-02-22T00:20:02.834Z,-0.23
2018-02-22T00:21:29.376Z,-0.21
2018-02-22T00:22:55.603Z,-0.18
2018-02-22T00:24:23.161Z,-0.15
2018-02-22T00:25:49.382Z,-0.11
2018-02-22T00:27:17.470Z,-0.14
2018-02-22T00:28:44.608Z,-0.18
2018-02-22T00:30:10.725Z,-0.22
2018-02-22T00:31:38.867Z,-0.26
2018-02-22T00:33:05.892Z,-0.24
2018-02-22T00:34:32.874Z,-0.23
2018-02-22T00:35:59.615Z,-0.20
2018-02-22T00:37:26.812Z,-0.19
2018-02-22T00:38:53.063Z,-0.18
2018-02-22T00:40:21.209Z,-0.18
2018-02-22T00:41:48.343Z,-0.17
2018-02-22T00:43:15.651Z,-0.14
2018-02-22T00:44:42.540Z,-0.10
2018-02-22T00:46:09.681Z,-0.07
2018-02-22T00:47:36.379Z,-0.07
2018-02-22T00:49:03.115Z,-0.06
2018-02-22T00:50:29.358Z,-0.06
2018-02-22T00:51:56.226Z,-0.07
2018-02-22T00:53:23.274Z,-0.08
2018-02-22T00:54:51.572Z,-0.08
2018-02-22T00:56:17.767Z,-0.06
2018-02-22T00:57:45.955Z,-0.03
2018-02-22T00:59:13.047Z,-0.03
2018-02-22T01:00:39.941Z,-0.04
2018-02-22T01:02:06.954Z,-0.02
2018-02-22T01:03:33.041Z,-0.01
2018-02-22T01:04:59.649Z,-0.01
2018-02-22T01:06:27.699Z,-0.01
2018-02-22T01:07:54.199Z,0.01
2018-02-22T01:09:20.586Z,0.01
2018-02-22T01:10:46.914Z,-0.02
2018-02-22T01:12:13.063Z,-0.05
2018-02-22T01:13:41.099Z,-0.06
2018-02-22T01:15:08.098Z,-0.06
2018-02-22T01:16:35.296Z,-0.05
2018-02-22T01:18:02.184Z,-0.06
2018-02-22T01:19:29.468Z,-0.05
2018-02-22T01:20:56.441Z,-0.02
2018-02-22T01:22:22.544Z,-0.01
2018-02-22T01:23:52.758Z,-0.01
2018-02-22T01:25:17.338Z,-0.03
2018-02-22T01:26:44.541Z,-0.04
2018-02-22T01:28:11.810Z,-0.03
2018-02-22T01:29:38.039Z,-0.03
2018-02-22T01:31:04.854Z,-0.02
2018-02-22T01:32:32.666Z,0.00
2018-02-22T01:33:59.823Z,0.02
2018-02-22T01:35:26.729Z,0.03
2018-02-22T01:36:52.494Z,0.04
2018-02-22T01:38:20.091Z,0.06
2018-02-22T01:39:46.192Z,0.10
2018-02-22T01:41:13.873Z,0.11
2018-02-22T01:42:39.870Z,0.11
2018-02-22T01:44:07.177Z,0.13
2018-02-22T01:45:35.209Z,0.14
2018-02-22T01:47:01.197Z,0.19
2018-02-22T01:48:29.142Z,0.23
2018-02-22T01:49:56.288Z,0.26
2018-02-22T01:51:23.306Z,0.30
2018-02-22T01:52:48.924Z,0.32
2018-02-22T01:54:16.535Z,0.34
2018-02-22T01:55:43.506Z,0.37
2018-02-22T01:57:10.746Z,0.40
2018-02-22T01:58:36.690Z,0.43
2018-02-22T02:00:03.706Z,0.45
2018-02-22T02:01:31.949Z,0.45
2018-02-22T02:02:58.607Z,0.47
2018-02-22T02:04:25.828Z,0.49
2018-02-22T02:05:52.363Z,0.51
2018-02-22T02:07:18.077Z,0.53
2018-02-22T02:08:46.150Z,0.55
2018-02-22T02:10:13.400Z,0.55
2018-02-22T02:11:40.332Z,0.57
2018-02-22T02:13:06.530Z,0.57
2018-02-22T02:14:34.322Z,0.58
2018-02-22T02:16:03.483Z,0.58
2018-02-22T02:17:27.379Z,0.59
2018-02-22T02:18:55.591Z,0.59
2018-02-22T02:20:22.925Z,0.59
2018-02-22T02:21:50.028Z,0.59
2018-02-22T02:23:16.875Z,0.60
2018-02-22T02:24:42.249Z,0.61
2018-02-22T02:26:09.441Z,0.61
2018-02-22T02:27:37.475Z,0.61
2018-02-22T02:29:03.402Z,0.63
2018-02-22T02:30:31.014Z,0.63
2018-02-22T02:31:57.014Z,0.64
2018-02-22T02:33:24.889Z,0.65
2018-02-22T02:34:50.934Z,0.66
2018-02-22T02:36:19.040Z,0.67
2018-02-22T02:37:46.385Z,0.68
2018-02-22T02:39:13.188Z,0.69
2018-02-22T02:40:39.058Z,0.68
2018-02-22T02:42:06.775Z,0.66
2018-02-22T02:43:33.892Z,0.65
2018-02-22T02:45:00.574Z,0.63
2018-02-22T02:46:27.582Z,0.64
2018-02-22T02:47:54.732Z,0.63
2018-02-22T02:50:49.251Z,0.58
2018-02-22T02:52:15.841Z,0.53
2018-02-22T02:53:42.961Z,0.46
2018-02-22T02:55:09.132Z,0.43
2018-02-22T02:56:36.171Z,0.40
2018-02-22T02:58:04.022Z,0.36
2018-02-22T02:59:31.328Z,0.34
2018-02-22T03:00:57.360Z,0.31
2018-02-22T03:02:25.414Z,0.33
2018-02-22T03:03:51.412Z,0.36
2018-02-22T03:05:18.108Z,0.39
2018-02-22T03:06:46.304Z,0.39
2018-02-22T03:08:13.408Z,0.39
2018-02-22T03:09:40.048Z,0.40
2018-02-22T03:11:06.611Z,0.43
2018-02-22T03:12:32.282Z,0.44
2018-02-22T03:13:59.448Z,0.44
2018-02-22T03:15:27.651Z,0.42
2018-02-22T03:16:54.891Z,0.41
2018-02-22T03:18:21.058Z,0.39
2018-02-22T03:19:48.190Z,0.37
2018-02-22T03:21:16.436Z,0.36
2018-02-22T03:22:43.673Z,0.33
2018-02-22T03:24:09.190Z,0.31
2018-02-22T03:25:37.089Z,0.31
2018-02-22T03:27:04.220Z,0.31
2018-02-22T03:28:31.056Z,0.32
2018-02-22T03:29:57.238Z,0.33
2018-02-22T03:31:25.519Z,0.35
2018-02-22T03:32:51.669Z,0.36
2018-02-22T03:34:19.838Z,0.37
2018-02-22T03:35:46.775Z,0.38
2018-02-22T03:37:12.969Z,0.38
2018-02-22T03:38:41.010Z,0.39
2018-02-22T03:40:07.685Z,0.41
2018-02-22T03:41:34.756Z,0.41
2018-02-22T03:43:00.710Z,0.42
2018-02-22T03:44:28.854Z,0.43
2018-02-22T03:45:55.249Z,0.45
2018-02-22T03:47:21.467Z,0.46
2018-02-22T03:48:49.536Z,0.47
2018-02-22T03:50:16.670Z,0.48
2018-02-22T03:51:42.702Z,0.51
2018-02-22T03:53:10.766Z,0.52
2018-02-22T03:54:37.839Z,0.56
2018-02-22T03:56:04.943Z,0.55
2018-02-22T03:57:31.849Z,0.55
2018-02-22T03:58:58.620Z,0.55
2018-02-22T04:00:25.755Z,0.54
2018-02-22T04:01:53.020Z,0.53
2018-02-22T04:03:20.108Z,0.53
2018-02-22T04:04:46.440Z,0.53
2018-02-22T04:06:14.769Z,0.54
2018-02-22T04:07:41.122Z,0.54
2018-02-22T04:09:07.799Z,0.56
2018-02-22T04:10:35.028Z,0.57
2018-02-22T04:12:00.599Z,0.57
2018-02-22T04:13:27.183Z,0.59
2018-02-22T04:14:55.367Z,0.60
2018-02-22T04:16:21.802Z,0.60
2018-02-22T04:17:49.024Z,0.61
2018-02-22T04:19:16.111Z,0.61
2018-02-22T04:20:42.709Z,0.63
2018-02-22T04:22:08.562Z,0.63
2018-02-22T04:23:35.705Z,0.64
2018-02-22T04:25:02.720Z,0.66
2018-02-22T04:26:31.116Z,0.66
2018-02-22T04:27:58.298Z,0.65
2018-02-22T04:29:24.913Z,0.65
2018-02-22T04:30:52.103Z,0.65
2018-02-22T04:32:18.384Z,0.66
2018-02-22T04:33:45.673Z,0.67
2018-02-22T04:35:12.645Z,0.68
2018-02-22T04:36:40.873Z,0.69
2018-02-22T04:38:06.881Z,0.72
2018-02-22T04:39:35.051Z,0.73
2018-02-22T04:41:02.032Z,0.74
2018-02-22T04:42:29.144Z,0.76
2018-02-22T04:43:55.370Z,0.76
2018-02-22T04:45:23.490Z,0.77
2018-02-22T04:46:50.633Z,0.77
2018-02-22T04:48:16.967Z,0.78
2018-02-22T04:49:43.010Z,0.78
2018-02-22T04:51:11.374Z,0.77
2018-02-22T04:52:38.008Z,0.78
2018-02-22T04:54:03.915Z,0.76
2018-02-22T04:55:31.887Z,0.75
2018-02-22T04:56:58.049Z,0.75
2018-02-22T04:58:25.289Z,0.76
2018-02-22T04:59:53.026Z,0.79
2018-02-22T05:01:20.266Z,0.82
2018-02-22T05:02:46.679Z,0.85
2018-02-22T05:04:13.196Z,0.84
2018-02-22T05:05:39.281Z,0.86
2018-02-22T05:07:07.288Z,0.84
2018-02-22T05:08:33.109Z,0.85
2018-02-22T05:10:00.510Z,0.86
2018-02-22T05:11:27.514Z,0.86
2018-02-22T05:12:53.178Z,0.88
2018-02-22T05:14:20.213Z,0.86
2018-02-22T05:15:47.317Z,0.87
2018-02-22T05:17:13.952Z,0.89
2018-02-22T05:18:41.072Z,0.87
2018-02-22T05:20:08.116Z,0.88
2018-02-22T05:21:35.610Z,0.88
2018-02-22T05:23:02.659Z,0.90
2018-02-22T05:24:29.195Z,0.90
2018-02-22T05:25:56.424Z,0.93
2018-02-22T05:27:23.620Z,0.96
2018-02-22T05:28:50.736Z,0.98
2018-02-22T05:30:17.879Z,1.00
2018-02-22T05:31:45.074Z,1.01
2018-02-22T05:33:12.112Z,1.02
2018-02-22T05:34:38.791Z,1.01
2018-02-22T05:36:05.894Z,0.99
2018-02-22T05:37:32.134Z,0.99
2018-02-22T05:38:59.257Z,0.99
2018-02-22T05:40:25.910Z,0.95
2018-02-22T05:41:54.097Z,0.94
2018-02-22T05:43:19.768Z,0.96
2018-02-22T05:44:47.804Z,0.97
2018-02-22T05:46:14.024Z,0.98
2018-02-22T05:47:41.106Z,1.00
2018-02-22T05:49:09.284Z,1.03
2018-02-22T05:50:35.875Z,1.04
2018-02-22T05:52:02.728Z,1.05
2018-02-22T05:53:29.433Z,1.06
2018-02-22T05:54:56.435Z,1.07
2018-02-22T05:56:23.592Z,1.08
2018-02-22T05:57:50.127Z,1.08
2018-02-22T05:59:16.896Z,1.09
2018-02-22T06:00:43.355Z,1.09
2018-02-22T06:02:09.309Z,1.10
2018-02-22T06:03:36.508Z,1.12
2018-02-22T06:05:03.504Z,1.13
2018-02-22T06:06:30.513Z,1.13
2018-02-22T06:07:57.590Z,1.12
2018-02-22T06:09:24.914Z,1.12
2018-02-22T06:10:53.152Z,1.13
2018-02-22T06:12:20.206Z,1.13
2018-02-22T06:13:46.498Z,1.14
2018-02-22T06:15:13.463Z,1.15
2018-02-22T06:16:41.689Z,1.16
2018-02-22T06:18:08.775Z,1.17
2018-02-22T06:19:34.917Z,1.19
2018-02-22T06:21:03.023Z,1.19
2018-02-22T06:22:30.157Z,1.19
2018-02-22T06:23:57.209Z,1.18
2018-02-22T06:25:24.417Z,1.19
2018-02-22T06:26:50.635Z,1.17
2018-02-22T06:28:18.784Z,1.16
2018-02-22T06:29:45.875Z,1.15
2018-02-22T06:31:11.731Z,1.15
2018-02-22T06:32:39.870Z,1.15
2018-02-22T06:34:06.624Z,1.15
2018-02-22T06:35:32.501Z,1.15
2018-02-22T06:37:00.668Z,1.16
2018-02-22T06:38:27.841Z,1.14
2018-02-22T06:39:54.067Z,1.11
2018-02-22T06:41:21.799Z,1.09
2018-02-22T06:42:47.475Z,1.10
2018-02-22T06:44:15.649Z,1.12
2018-02-22T06:45:42.791Z,1.14
2018-02-22T06:47:08.745Z,1.16
2018-02-22T06:48:36.465Z,1.20
2018-02-22T06:50:03.138Z,1.22
2018-02-22T06:51:30.297Z,1.24
2018-02-22T06:52:57.467Z,1.27
2018-02-22T06:54:23.359Z,1.29
2018-02-22T06:55:51.229Z,1.30
2018-02-22T06:57:18.446Z,1.32
2018-02-22T06:58:45.629Z,1.35
2018-02-22T07:00:12.766Z,1.37
2018-02-22T07:01:38.823Z,1.39
2018-02-22T07:03:05.577Z,1.42
2018-02-22T07:04:33.581Z,1.44
2018-02-22T07:05:59.691Z,1.47
2018-02-22T07:07:27.984Z,1.49
2018-02-22T07:08:54.085Z,1.50
2018-02-22T07:10:22.313Z,1.50
2018-02-22T07:11:48.445Z,1.51
2018-02-22T07:13:16.545Z,1.52
2018-02-22T07:14:43.004Z,1.53
2018-02-22T07:16:09.699Z,1.55
2018-02-22T07:17:35.992Z,1.57
2018-02-22T07:19:04.005Z,1.59
2018-02-22T07:20:29.393Z,1.61
2018-02-22T07:21:56.575Z,1.63
2018-02-22T07:23:23.707Z,1.66
2018-02-22T07:24:50.935Z,1.70
2018-02-22T07:26:19.224Z,1.73
2018-02-22T07:27:46.469Z,1.77
2018-02-22T07:29:12.987Z,1.81
2018-02-22T07:30:39.490Z,1.85
2018-02-22T07:32:06.556Z,1.89
2018-02-22T07:33:33.328Z,1.91
2018-02-22T07:35:00.629Z,1.92
2018-02-22T07:36:27.825Z,1.95
2018-02-22T07:37:55.025Z,1.97
2018-02-22T07:39:21.926Z,1.98
2018-02-22T07:40:47.787Z,1.98
2018-02-22T07:42:15.768Z,1.98
2018-02-22T07:43:42.435Z,1.96
2018-02-22T07:45:09.359Z,1.96
2018-02-22T07:46:35.332Z,1.95
2018-02-22T07:48:03.279Z,1.92
2018-02-22T07:49:29.892Z,1.91
2018-02-22T07:50:56.148Z,1.88
2018-02-22T07:52:24.204Z,1.84
2018-02-22T07:53:51.471Z,1.84
2018-02-22T07:55:18.023Z,1.88
2018-02-22T07:56:44.173Z,1.91
2018-02-22T07:58:11.314Z,1.93
2018-02-22T07:59:39.576Z,1.95
2018-02-22T08:01:06.351Z,1.98
2018-02-22T08:02:33.489Z,1.98
2018-02-22T08:04:00.042Z,1.99
2018-02-22T08:05:27.130Z,2.00
2018-02-22T08:06:54.356Z,1.97
2018-02-22T08:08:20.429Z,1.98
2018-02-22T08:09:47.645Z,1.99
2018-02-22T08:11:15.307Z,2.02
2018-02-22T08:12:42.577Z,2.04
2018-02-22T08:14:09.497Z,2.05
2018-02-22T08:15:36.485Z,2.04
2018-02-22T08:17:03.465Z,2.02
2018-02-22T08:18:28.781Z,2.03
2018-02-22T08:19:55.974Z,2.04
2018-02-22T08:21:24.093Z,2.06
2018-02-22T08:22:51.386Z,2.09
2018-02-22T08:24:17.500Z,2.13
2018-02-22T08:25:44.122Z,2.16
2018-02-22T08:27:14.105Z,2.20
2018-02-22T08:28:38.106Z,2.22
2018-02-22T08:30:05.084Z,2.23
2018-02-22T08:31:31.930Z,2.24
2018-02-22T08:32:58.514Z,2.25
2018-02-22T08:34:26.118Z,2.26
2018-02-22T08:35:52.734Z,2.28
2018-02-22T08:37:19.805Z,2.27
2018-02-22T08:38:45.970Z,2.29
2018-02-22T08:40:14.165Z,2.30
2018-02-22T08:41:41.290Z,2.29
2018-02-22T08:43:08.301Z,2.30
2018-02-22T08:44:33.891Z,2.33
2018-02-22T08:46:01.930Z,2.34
2018-02-22T08:47:28.981Z,2.37
2018-02-22T08:48:54.368Z,2.39
2018-02-22T08:50:22.676Z,2.42
2018-02-22T08:51:49.799Z,2.45
2018-02-22T08:53:15.564Z,2.47
2018-02-22T08:54:43.564Z,2.49
2018-02-22T08:56:09.708Z,2.48
2018-02-22T08:57:37.918Z,2.49
2018-02-22T08:59:05.042Z,2.50
2018-02-22T09:00:32.162Z,2.52
2018-02-22T09:01:59.362Z,2.53
2018-02-22T09:03:26.625Z,2.55
2018-02-22T09:04:53.212Z,2.56
2018-02-22T09:06:19.342Z,2.59
2018-02-22T09:07:46.943Z,2.62
2018-02-22T09:09:14.061Z,2.65
2018-02-22T09:10:39.487Z,2.68
2018-02-22T09:12:06.840Z,2.71
2018-02-22T09:13:33.911Z,2.74
2018-02-22T09:15:00.491Z,2.72
2018-02-22T09:16:27.544Z,2.73
2018-02-22T09:17:54.616Z,2.74
2018-02-22T09:19:20.744Z,2.76
2018-02-22T09:20:49.060Z,2.80
2018-02-22T09:22:15.374Z,2.84
2018-02-22T09:23:45.265Z,2.87
2018-02-22T09:25:10.159Z,2.92
2018-02-22T09:26:37.135Z,2.94
2018-02-22T09:28:03.313Z,2.93
2018-02-22T09:29:30.968Z,2.97
2018-02-22T09:30:57.137Z,2.97
2018-02-22T09:32:23.761Z,3.00
2018-02-22T09:33:50.959Z,2.96
2018-02-22T09:35:18.141Z,2.94
2018-02-22T09:36:46.136Z,2.92
2018-02-22T09:38:13.405Z,2.93
2018-02-22T09:39:39.632Z,2.93
2018-02-22T09:41:06.388Z,2.96
2018-02-22T09:42:34.370Z,2.96
2018-02-22T09:44:00.324Z,2.97
2018-02-22T09:45:28.031Z,2.97
2018-02-22T09:46:54.127Z,2.97
2018-02-22T09:48:21.429Z,2.95
2018-02-22T09:49:48.303Z,2.94
2018-02-22T09:51:16.591Z,2.95
2018-02-22T09:52:42.830Z,2.99
2018-02-22T09:54:11.107Z,3.02
2018-02-22T09:55:37.181Z,3.02
2018-02-22T09:57:04.141Z,3.07
2018-02-22T09:58:31.296Z,3.08
2018-02-22T09:59:57.930Z,3.14
2018-02-22T10:01:25.556Z,3.20
2018-02-22T10:02:52.778Z,3.25
2018-02-22T10:04:18.622Z,3.25
2018-02-22T10:05:46.591Z,3.28
2018-02-22T10:07:13.831Z,3.28
2018-02-22T10:08:39.976Z,3.28
2018-02-22T10:10:07.058Z,3.31
2018-02-22T10:11:35.121Z,3.33
2018-02-22T10:13:00.896Z,3.37
2018-02-22T10:14:28.994Z,3.38
2018-02-22T10:15:56.155Z,3.36
2018-02-22T10:17:22.517Z,3.33
2018-02-22T10:18:48.997Z,3.34
2018-02-22T10:20:17.315Z,3.33
2018-02-22T10:21:44.371Z,3.36
2018-02-22T10:23:10.859Z,3.36
2018-02-22T10:24:38.174Z,3.33
2018-02-22T10:26:05.177Z,3.30
2018-02-22T10:27:32.205Z,3.27
2018-02-22T10:28:58.497Z,3.23
2018-02-22T10:30:26.701Z,3.25
2018-02-22T10:31:52.807Z,3.28
2018-02-22T10:33:19.645Z,3.33
2018-02-22T10:34:46.810Z,3.37
2018-02-22T10:36:15.054Z,3.37
2018-02-22T10:37:42.305Z,3.38
2018-02-22T10:39:08.561Z,3.39
2018-02-22T10:40:35.479Z,3.45
2018-02-22T10:42:03.540Z,3.41
2018-02-22T10:43:29.305Z,3.39
2018-02-22T10:44:56.283Z,3.37
2018-02-22T10:46:23.580Z,3.37
2018-02-22T10:47:50.878Z,3.36
2018-02-22T10:49:19.280Z,3.38
2018-02-22T10:50:46.451Z,3.35
2018-02-22T10:52:13.852Z,3.31
2018-02-22T10:53:40.945Z,3.32
2018-02-22T10:55:08.132Z,3.32
2018-02-22T10:56:34.136Z,3.27
2018-02-22T10:58:02.310Z,3.25
2018-02-22T10:59:28.592Z,3.17
2018-02-22T11:00:55.751Z,3.09
2018-02-22T11:02:23.956Z,3.01
2018-02-22T11:03:51.231Z,2.93
2018-02-22T11:05:18.551Z,2.81
2018-02-22T11:06:45.734Z,2.70
2018-02-22T11:08:12.834Z,2.57
2018-02-22T11:09:39.784Z,2.46
2018-02-22T11:11:07.085Z,2.36
2018-02-22T11:12:32.934Z,2.28
2018-02-22T11:13:59.729Z,2.24
2018-02-22T11:15:27.858Z,2.22
2018-02-22T11:16:54.612Z,2.17
2018-02-22T11:18:21.883Z,2.15
2018-02-22T11:19:48.051Z,2.11
2018-02-22T11:21:16.238Z,2.09
2018-02-22T11:22:43.536Z,2.05
2018-02-22T11:24:09.443Z,2.03
2018-02-22T11:25:36.567Z,2.01
2018-02-22T11:27:03.251Z,2.00
2018-02-22T11:28:29.862Z,1.98
2018-02-22T11:29:57.022Z,1.98
2018-02-22T11:31:24.255Z,1.97
2018-02-22T11:32:52.373Z,1.97
2018-02-22T11:34:18.056Z,1.96
2018-02-22T11:35:45.250Z,1.96
2018-02-22T11:37:13.107Z,1.96
2018-02-22T11:38:40.330Z,1.96
2018-02-22T11:40:07.584Z,1.97
2018-02-22T11:41:33.453Z,1.98
2018-02-22T11:43:00.525Z,1.99
2018-02-22T11:44:27.856Z,2.01
2018-02-22T11:45:54.940Z,2.00
2018-02-22T11:47:22.174Z,1.98
2018-02-22T11:48:50.431Z,1.95
2018-02-22T11:50:16.678Z,1.94
2018-02-22T11:51:44.825Z,1.95
2018-02-22T11:53:11.910Z,1.96
2018-02-22T11:54:39.061Z,1.98
2018-02-22T11:56:06.204Z,1.98
2018-02-22T11:57:32.151Z,1.98
2018-02-22T11:58:59.240Z,2.00
2018-02-22T12:00:27.389Z,2.02
2018-02-22T12:01:54.426Z,2.02
2018-02-22T12:03:21.531Z,2.02
2018-02-22T12:04:48.656Z,2.02
2018-02-22T12:06:15.890Z,2.05
2018-02-22T12:07:42.121Z,2.07
2018-02-22T12:09:10.231Z,2.10
2018-02-22T12:10:36.291Z,2.12
2018-02-22T12:12:04.224Z,2.15
2018-02-22T12:13:31.042Z,2.18
2018-02-22T12:14:58.124Z,2.20
2018-02-22T12:16:25.250Z,2.23
2018-02-22T12:17:52.388Z,2.25
2018-02-22T12:19:18.352Z,2.27
2018-02-22T12:20:45.900Z,2.28
2018-02-22T12:22:13.231Z,2.30
2018-02-22T12:23:38.891Z,2.31
2018-02-22T12:25:07.320Z,2.32
2018-02-22T12:26:32.875Z,2.31
2018-02-22T12:27:59.731Z,2.32
2018-02-22T12:29:26.842Z,2.32
2018-02-22T12:30:54.934Z,2.34
2018-02-22T12:32:21.186Z,2.32
2018-02-22T12:33:48.291Z,2.29
2018-02-22T12:35:16.600Z,2.28
2018-02-22T12:36:43.697Z,2.27
2018-02-22T12:38:10.459Z,2.25
2018-02-22T12:39:36.776Z,2.22
2018-02-22T12:41:04.530Z,2.21
2018-02-22T12:42:30.556Z,2.24
2018-02-22T12:43:58.899Z,2.30
2018-02-22T12:45:24.920Z,2.51
2018-02-22T12:46:51.756Z,2.74
2018-02-22T12:48:19.015Z,2.99
2018-02-22T12:49:46.129Z,3.24
2018-02-22T12:51:14.425Z,3.49
2018-02-22T12:52:40.707Z,3.69
2018-02-22T12:54:09.018Z,3.96
2018-02-22T12:55:34.973Z,4.28
2018-02-22T12:57:02.101Z,4.40
2018-02-22T12:58:29.398Z,4.35
2018-02-22T12:59:57.624Z,4.24
2018-02-22T13:01:23.790Z,4.07
2018-02-22T13:02:52.007Z,3.92
2018-02-22T13:04:18.195Z,3.80
2018-02-22T13:05:46.425Z,3.62
2018-02-22T13:07:13.141Z,3.49
2018-02-22T13:08:39.432Z,3.41
2018-02-22T13:10:06.621Z,3.37
2018-02-22T13:11:34.778Z,3.36
2018-02-22T13:13:00.642Z,3.33
2018-02-22T13:14:28.017Z,3.30
2018-02-22T13:15:56.272Z,3.25
2018-02-22T13:17:22.468Z,3.21
2018-02-22T13:18:49.551Z,3.20
2018-02-22T13:20:16.670Z,3.20
2018-02-22T13:21:44.594Z,3.19
2018-02-22T13:23:10.461Z,3.17
2018-02-22T13:24:37.634Z,3.19
2018-02-22T13:26:05.652Z,3.19
2018-02-22T13:27:32.742Z,3.15
2018-02-22T13:29:00.054Z,3.12
2018-02-22T13:30:26.288Z,3.16
2018-02-22T13:31:54.507Z,3.18
2018-02-22T13:33:21.635Z,3.13
2018-02-22T13:34:48.796Z,3.12
2018-02-22T13:36:16.085Z,3.12
2018-02-22T13:37:42.866Z,3.16
2018-02-22T13:39:09.922Z,3.29
2018-02-22T13:40:36.261Z,3.43
2018-02-22T13:42:04.301Z,3.55
2018-02-22T13:43:30.100Z,3.65
2018-02-22T13:44:58.253Z,3.73
2018-02-22T13:46:25.597Z,3.75
2018-02-22T13:47:51.973Z,3.84
2018-02-22T13:49:19.201Z,3.89
2018-02-22T13:50:47.390Z,3.83
2018-02-22T13:52:14.566Z,3.75
2018-02-22T13:53:40.657Z,3.60
2018-02-22T13:55:08.020Z,3.48
2018-02-22T13:56:35.194Z,3.47
2018-02-22T13:58:02.575Z,3.45
2018-02-22T13:59:29.189Z,3.42
2018-02-22T14:00:57.076Z,3.36
2018-02-22T14:02:23.244Z,3.27
2018-02-22T14:03:50.081Z,3.18
2018-02-22T14:05:18.371Z,3.10
2018-02-22T14:06:45.491Z,3.03
2018-02-22T14:08:12.718Z,2.96
2018-02-22T14:09:38.588Z,2.94
2018-02-22T14:11:05.444Z,2.86
2018-02-22T14:12:32.694Z,2.84
2018-02-22T14:13:59.639Z,2.88
2018-02-22T14:15:26.740Z,3.00
2018-02-22T14:16:54.017Z,3.14
2018-02-22T14:18:22.139Z,3.31
2018-02-22T14:19:49.384Z,3.45
2018-02-22T14:21:16.277Z,3.65
2018-02-22T14:22:42.975Z,3.82
2018-02-22T14:24:09.335Z,3.88
2018-02-22T14:25:36.395Z,3.88
2018-02-22T14:27:03.685Z,3.88
2018-02-22T14:28:30.472Z,3.96
2018-02-22T14:29:58.747Z,4.11
2018-02-22T14:31:26.021Z,4.24
2018-02-22T14:32:52.286Z,4.35
2018-02-22T14:34:20.637Z,4.47
2018-02-22T14:35:47.844Z,4.57
2018-02-22T14:37:14.201Z,4.62
2018-02-22T14:38:41.463Z,4.66
2018-02-22T14:40:08.337Z,4.59
2018-02-22T14:41:36.530Z,4.56
2018-02-22T14:43:02.460Z,4.57
2018-02-22T14:44:29.671Z,4.40
2018-02-22T14:45:57.916Z,4.29
2018-02-22T14:47:25.311Z,4.06
2018-02-22T14:48:52.384Z,3.85
2018-02-22T14:50:18.601Z,3.73
2018-02-22T14:51:45.470Z,3.62
2018-02-22T14:53:12.503Z,3.53
2018-02-22T14:54:40.860Z,3.45
2018-02-22T14:56:06.803Z,3.39
2018-02-22T14:57:33.940Z,3.31
2018-02-22T14:59:01.042Z,3.25
2018-02-22T15:00:28.120Z,3.21
2018-02-22T15:01:55.332Z,3.16
2018-02-22T15:03:22.448Z,3.10
2018-02-22T15:04:50.551Z,3.07
2018-02-22T15:06:17.682Z,3.03
2018-02-22T15:07:44.711Z,2.99
2018-02-22T15:09:10.689Z,2.95
2018-02-22T15:10:38.752Z,2.90
2018-02-22T15:12:05.705Z,2.86
2018-02-22T15:13:31.767Z,2.82
2018-02-22T15:14:58.770Z,2.79
2018-02-22T15:16:26.717Z,2.74
2018-02-22T15:17:52.673Z,2.72
2018-02-22T15:19:19.815Z,2.71
2018-02-22T15:20:48.021Z,2.72
2018-02-22T15:22:15.247Z,2.70
2018-02-22T15:23:42.339Z,2.69
2018-02-22T15:25:08.518Z,2.67
2018-02-22T15:26:36.515Z,2.66
2018-02-22T15:28:02.772Z,2.65
2018-02-22T15:29:30.625Z,2.64
2018-02-22T15:30:57.644Z,2.64
2018-02-22T15:32:23.804Z,2.63
2018-02-22T15:33:51.028Z,2.63
2018-02-22T15:35:19.065Z,2.63
2018-02-22T15:36:45.313Z,2.64
2018-02-22T15:38:12.584Z,2.63
2018-02-22T15:39:40.674Z,2.61
2018-02-22T15:41:06.732Z,2.60
2018-02-22T15:42:33.929Z,2.60
2018-02-22T15:44:01.118Z,2.62
2018-02-22T15:45:29.125Z,2.64
2018-02-22T15:46:55.248Z,2.65
2018-02-22T15:48:22.543Z,2.65
2018-02-22T15:49:49.709Z,2.64
2018-02-22T15:51:17.405Z,2.62
2018-02-22T15:52:43.715Z,2.60
2018-02-22T15:54:10.435Z,2.58
2018-02-22T15:55:37.661Z,2.55
2018-02-22T15:57:05.813Z,2.54
2018-02-22T15:58:32.998Z,2.54
2018-02-22T16:00:00.028Z,2.52
2018-02-22T16:01:27.244Z,2.51
2018-02-22T16:02:53.428Z,2.49
2018-02-22T16:04:21.523Z,2.46
2018-02-22T16:05:48.647Z,2.44
2018-02-22T16:07:15.938Z,2.42
2018-02-22T16:08:42.141Z,2.41
2018-02-22T16:10:09.164Z,2.40
2018-02-22T16:11:35.998Z,2.38
2018-02-22T16:13:04.052Z,2.36
2018-02-22T16:14:31.377Z,2.36
2018-02-22T16:15:57.484Z,2.36
2018-02-22T16:17:25.675Z,2.36
2018-02-22T16:18:53.017Z,2.36
2018-02-22T16:20:20.019Z,2.36
2018-02-22T16:21:47.156Z,2.35
2018-02-22T16:23:13.268Z,2.33
2018-02-22T16:24:41.529Z,2.30
2018-02-22T16:26:07.709Z,2.29
2018-02-22T16:27:35.789Z,2.27
2018-02-22T16:29:01.828Z,2.25
2018-02-22T16:30:30.171Z,2.23
2018-02-22T16:31:57.319Z,2.19
2018-02-22T16:33:23.668Z,2.17
2018-02-22T16:34:50.746Z,2.16
2018-02-22T16:36:17.894Z,2.14
2018-02-22T16:37:45.068Z,2.12
2018-02-22T16:39:13.350Z,2.10
2018-02-22T16:40:40.254Z,2.10
2018-02-22T16:42:07.553Z,2.08
2018-02-22T16:43:34.622Z,2.04
2018-02-22T16:45:00.452Z,2.02
2018-02-22T16:46:28.694Z,2.02
2018-02-22T16:47:54.538Z,2.01
2018-02-22T16:49:21.657Z,1.99
2018-02-22T16:50:48.823Z,1.97
2018-02-22T16:52:15.870Z,1.94
2018-02-22T16:53:43.076Z,1.91
2018-02-22T16:55:10.323Z,1.90
2018-02-22T16:56:38.266Z,1.87
2018-02-22T16:58:04.384Z,1.87
2018-02-22T16:59:32.480Z,1.85
2018-02-22T17:00:58.587Z,1.83
2018-02-22T17:02:25.670Z,1.81
2018-02-22T17:03:52.652Z,1.81
2018-02-22T17:05:20.806Z,1.80
2018-02-22T17:06:47.096Z,1.79
2018-02-22T17:08:15.372Z,1.77
2018-02-22T17:09:41.590Z,1.78
2018-02-22T17:11:08.685Z,1.76
2018-02-22T17:12:35.581Z,1.74
2018-02-22T17:14:03.659Z,1.74
2018-02-22T17:15:29.919Z,1.74
2018-02-22T17:16:56.988Z,1.74
2018-02-22T17:18:25.106Z,1.73
2018-02-22T17:19:50.950Z,1.71
2018-02-22T17:21:17.760Z,1.71
2018-02-22T17:22:44.974Z,1.70
2018-02-22T17:24:12.064Z,1.71
2018-02-22T17:25:40.083Z,1.70
2018-02-22T17:27:06.125Z,1.70
2018-02-22T17:28:33.243Z,1.69
2018-02-22T17:30:00.086Z,1.69
2018-02-22T17:31:26.875Z,1.68
2018-02-22T17:32:53.943Z,1.67
2018-02-22T17:34:21.013Z,1.68
2018-02-22T17:35:49.163Z,1.68
2018-02-22T17:37:16.261Z,1.65
2018-02-22T17:38:43.443Z,1.65
2018-02-22T17:40:10.731Z,1.64
2018-02-22T17:41:37.811Z,1.63
2018-02-22T17:43:03.858Z,1.63
2018-02-22T17:44:30.748Z,1.62
2018-02-22T17:45:58.047Z,1.62
2018-02-22T17:47:26.331Z,1.60
2018-02-22T17:48:52.609Z,1.60
2018-02-22T17:50:19.780Z,1.58
2018-02-22T17:51:46.872Z,1.58
2018-02-22T17:53:13.940Z,1.57
2018-02-22T17:54:41.116Z,1.56
2018-02-22T17:56:08.266Z,1.56
2018-02-22T17:57:35.302Z,1.56
2018-02-22T17:59:02.335Z,1.57
2018-02-22T18:00:30.585Z,1.56
2018-02-22T18:01:57.687Z,1.55
2018-02-22T18:03:24.598Z,1.54
2018-02-22T18:04:51.488Z,1.54
2018-02-22T18:06:18.451Z,1.53
2018-02-22T18:07:45.646Z,1.53
2018-02-22T18:09:11.892Z,1.53
2018-02-22T18:10:40.064Z,1.53
2018-02-22T18:12:07.088Z,1.52
2018-02-22T18:13:33.067Z,1.52
2018-02-22T18:15:06.182Z,1.50
2018-02-22T18:16:28.030Z,1.49
2018-02-22T18:17:54.123Z,1.48
2018-02-22T18:19:22.454Z,1.46
2018-02-22T18:20:48.661Z,1.46
2018-02-22T18:22:16.880Z,1.46
2018-02-22T18:23:42.839Z,1.45
2018-02-22T18:25:09.630Z,1.44
2018-02-22T18:26:36.568Z,1.44
2018-02-22T18:28:04.790Z,1.43
2018-02-22T18:29:30.951Z,1.42
2018-02-22T18:30:57.978Z,1.42
2018-02-22T18:32:26.130Z,1.42
2018-02-22T18:33:53.366Z,1.42
2018-02-22T18:35:20.336Z,1.41
2018-02-22T18:36:46.356Z,1.40
2018-02-22T18:38:13.566Z,1.39
2018-02-22T18:39:41.744Z,1.39
2018-02-22T18:41:07.515Z,1.38
2018-02-22T18:42:35.637Z,1.38
2018-02-22T18:44:01.601Z,1.38
2018-02-22T18:45:29.577Z,1.39
2018-02-22T18:46:55.610Z,1.38
2018-02-22T18:48:23.777Z,1.36
2018-02-22T18:49:50.455Z,1.34
2018-02-22T18:51:16.627Z,1.32
2018-02-22T18:52:44.443Z,1.31
2018-02-22T18:54:10.707Z,1.31
2018-02-22T18:55:38.896Z,1.30
2018-02-22T18:57:06.000Z,1.30
2018-02-22T18:58:33.153Z,1.30
2018-02-22T19:00:00.413Z,1.29
2018-02-22T19:01:26.425Z,1.28
2018-02-22T19:02:53.641Z,1.29
2018-02-22T19:04:21.489Z,1.29
2018-02-22T19:05:48.630Z,1.29
2018-02-22T19:07:14.734Z,1.30
2018-02-22T19:08:42.818Z,1.29
2018-02-22T19:10:08.636Z,1.29
2018-02-22T19:11:36.530Z,1.31
2018-02-22T19:13:02.290Z,1.30
2018-02-22T19:14:29.519Z,1.31
2018-02-22T19:15:56.771Z,1.30
2018-02-22T19:17:24.991Z,1.31